Time;durP1;ratioP1;P1;durP2;ratioP2;P2;SDS_P1;SDS_P2;PMS_P1;PMS_P2;Temp;Humidity;BMP_temperature;BMP_pressure;BME280_temperature;BME280_humidity;BME280_pressure;Samples;Min_cycle;Max_cycle;Signal;HPM_P1;HPM_P2
2022/02/14 00:00:47;;;;;;;2.37;1.73;;;-0.50;99.90;;;;;;5053632;28;20419;-77
2022/02/14 00:03:13;;;;;;;3.17;1.80;;;;;;;;;;5054905;28;20412;-77
2022/02/14 00:05:40;;;;;;;1.40;1.17;;;;;;;;;;5053369;28;20185;-76
2022/02/14 00:08:05;;;;;;;3.67;1.90;;;-0.60;99.90;;;;;;5054802;28;20499;-77
2022/02/14 00:10:31;;;;;;;2.27;1.37;;;-0.80;99.90;;;;;;5054932;28;21005;-77
2022/02/14 00:12:58;;;;;;;2.10;1.50;;;-0.50;99.90;;;;;;5054993;28;20176;-77
2022/02/14 00:15:24;;;;;;;2.50;1.60;;;;;;;;;;5054710;28;20235;-77
2022/02/14 00:17:50;;;;;;;2.63;1.50;;;;;;;;;;5055030;28;20419;-77
2022/02/14 00:20:16;;;;;;;2.00;1.33;;;;;;;;;;5054500;28;20865;-77
2022/02/14 00:22:42;;;;;;;1.00;0.90;;;;;;;;;;5055065;28;20400;-77
2022/02/14 00:25:09;;;;;;;3.83;1.80;;;-0.80;99.90;;;;;;5054639;28;20409;-77
2022/02/14 00:27:35;;;;;;;2.50;1.37;;;;;;;;;;5053629;28;20848;-77
2022/02/14 00:30:01;;;;;;;4.07;1.40;;;;;;;;;;5053964;28;20832;-77
2022/02/14 00:32:27;;;;;;;1.67;1.40;;;;;;;;;;5052417;28;20448;-77
2022/02/14 00:34:55;;;;;;;2.43;1.60;;;;;;;;;;5054307;28;20546;-77
2022/02/14 00:37:21;;;;;;;2.17;1.47;;;;;;;;;;5054187;28;20968;-77
2022/02/14 00:39:47;;;;;;;3.20;1.47;;;;;;;;;;5054642;28;20507;-77
2022/02/14 00:42:13;;;;;;;2.57;1.70;;;;;;;;;;5054574;28;20170;-77
2022/02/14 00:44:40;;;;;;;1.47;1.30;;;;;;;;;;5054362;28;20405;-77
2022/02/14 00:47:06;;;;;;;3.67;1.37;;;;;;;;;;5054152;28;20489;-77
2022/02/14 00:49:32;;;;;;;1.43;1.23;;;;;;;;;;5053973;28;20929;-77
2022/02/14 00:51:58;;;;;;;2.33;1.37;;;;;;;;;;5054435;28;20407;-77
2022/02/14 00:54:24;;;;;;;1.57;1.17;;;;;;;;;;5054070;28;20253;-77
2022/02/14 00:56:49;;;;;;;3.13;1.80;;;-1.20;99.90;;;;;;5053932;28;20550;-77
2022/02/14 00:59:15;;;;;;;1.67;1.33;;;;;;;;;;5052867;28;20204;-77
2022/02/14 01:01:41;;;;;;;2.30;1.30;;;;;;;;;;5058858;28;20204;-76
2022/02/14 01:04:07;;;;;;;1.50;1.03;;;;;;;;;;5061265;28;20412;-76
2022/02/14 01:06:33;;;;;;;2.67;1.20;;;-1.00;99.90;;;;;;5057110;28;20474;-76
2022/02/14 01:08:59;;;;;;;3.43;1.93;;;;;;;;;;5055809;28;20558;-76
2022/02/14 01:11:25;;;;;;;2.13;1.33;;;;;;;;;;5055030;28;20516;-77
2022/02/14 01:13:55;;;;;;;1.50;1.10;;;;;;;;;;5055472;28;20412;-76
2022/02/14 01:16:21;;;;;;;2.43;1.53;;;;;;;;;;5055152;28;20447;-77
2022/02/14 01:18:48;;;;;;;2.00;1.40;;;;;;;;;;5054421;28;20566;-77
2022/02/14 01:21:15;;;;;;;2.57;1.37;;;;;;;;;;5052178;28;20455;-77
2022/02/14 01:23:41;;;;;;;3.20;1.57;;;;;;;;;;5053536;28;20412;-77
2022/02/14 01:26:07;;;;;;;1.40;1.00;;;;;;;;;;5052396;28;20419;-76
2022/02/14 01:28:33;;;;;;;1.73;1.10;;;;;;;;;;5053973;28;20197;-77
2022/02/14 01:30:59;;;;;;;0.70;0.70;;;;;;;;;;5053627;28;20428;-76
2022/02/14 01:33:25;;;;;;;1.17;1.03;;;;;;;;;;5053591;28;20426;-76
2022/02/14 01:35:51;;;;;;;1.30;1.13;;;;;;;;;;5052002;28;20201;-77
2022/02/14 01:38:17;;;;;;;1.83;1.10;;;-0.70;99.90;;;;;;5053560;28;20400;-77
2022/02/14 01:40:44;;;;;;;1.30;0.80;;;;;;;;;;5052429;28;20421;-77
2022/02/14 01:43:15;;;;;;;1.87;1.00;;;;;;;;;;5053426;28;20440;-77
2022/02/14 01:45:41;;;;;;;0.93;0.87;;;;;;;;;;5057888;28;20392;-77
2022/02/14 01:48:07;;;;;;;2.50;1.10;;;;;;;;;;5057445;28;20895;-77
2022/02/14 01:50:33;;;;;;;1.63;1.07;;;;;;;;;;5057581;28;20959;-77
2022/02/14 01:52:59;;;;;;;1.90;1.13;;;-0.80;99.90;;;;;;5057363;28;20400;-77
2022/02/14 01:55:25;;;;;;;1.23;1.10;;;;;;;;;;5057092;28;20226;-77
2022/02/14 01:57:51;;;;;;;1.27;1.00;;;;;;;;;;5057148;28;20825;-77
2022/02/14 02:00:19;;;;;;;2.77;1.33;;;-0.80;99.90;;;;;;5056957;28;20514;-77
2022/02/14 02:02:45;;;;;;;2.03;1.60;;;;;;;;;;5057665;28;20889;-77
2022/02/14 02:05:11;;;;;;;1.23;1.00;;;-0.90;99.90;;;;;;5056980;28;20413;-77
2022/02/14 02:07:38;;;;;;;1.50;1.03;;;;;;;;;;5057513;28;20177;-77
2022/02/14 02:10:09;;;;;;;1.37;0.90;;;-0.80;99.90;;;;;;5057035;28;20450;-77
2022/02/14 02:12:35;;;;;;;1.53;1.00;;;;;;;;;;5057487;28;20420;-77
2022/02/14 02:15:03;;;;;;;1.27;1.03;;;-0.80;99.90;;;;;;5056809;28;20412;-76
2022/02/14 02:17:38;;;;;;;1.17;1.07;;;-0.90;99.90;;;;;;5057295;28;20451;-77
2022/02/14 02:20:06;;;;;;;0.80;0.80;;;-0.80;99.90;;;;;;5056929;28;20438;-77
2022/02/14 02:22:32;;;;;;;1.10;1.00;;;;;;;;;;5056833;28;20416;-77
2022/02/14 02:24:58;;;;;;;4.17;1.10;;;;;;;;;;5056726;28;20503;-77
2022/02/14 02:27:25;;;;;;;0.93;0.80;;;-0.90;99.90;;;;;;5056933;28;20408;-76
2022/02/14 02:29:55;;;;;;;1.50;1.10;;;-0.80;99.90;;;;;;5056630;28;20439;-77
2022/02/14 02:32:21;;;;;;;1.13;0.87;;;;;;;;;;5055166;28;20440;-77
2022/02/14 02:34:47;;;;;;;1.40;1.00;;;;;;;;;;5056623;28;20459;-77
2022/02/14 02:37:15;;;;;;;1.23;1.13;;;;;;;;;;5056657;28;20451;-77
2022/02/14 02:39:41;;;;;;;1.57;1.20;;;;;;;;;;5056489;28;20436;-77
2022/02/14 02:42:08;;;;;;;1.93;1.00;;;-0.70;99.20;;;;;;5058067;28;20487;-76
2022/02/14 02:44:36;;;;;;;2.90;1.50;;;-0.80;99.90;;;;;;5056609;28;20924;-77
2022/02/14 02:47:04;;;;;;;1.20;1.10;;;-0.90;98.80;;;;;;5056382;28;20514;-77
2022/02/14 02:49:30;;;;;;;1.73;1.43;;;-0.70;98.80;;;;;;5056116;28;20436;-77
2022/02/14 02:51:56;;;;;;;1.00;0.90;;;;;;;;;;5056529;28;20434;-77
2022/02/14 02:54:23;;;;;;;1.67;0.97;;;-0.60;97.80;;;;;;5054289;28;20177;-77
2022/02/14 02:56:51;;;;;;;2.17;1.07;;;-0.60;97.30;;;;;;5054999;28;20467;-77
2022/02/14 02:59:17;;;;;;;1.60;0.90;;;-0.60;96.80;;;;;;5056267;28;20827;-77
2022/02/14 03:01:43;;;;;;;1.43;0.90;;;-0.60;96.40;;;;;;5056203;28;20502;-77
2022/02/14 03:04:11;;;;;;;1.80;1.30;;;-0.50;96.30;;;;;;5056040;28;20173;-77
2022/02/14 03:06:38;;;;;;;1.77;1.07;;;-0.60;96.20;;;;;;5055905;28;20423;-76
2022/02/14 03:09:05;;;;;;;1.23;0.90;;;-0.50;96.20;;;;;;5056063;28;20432;-77
2022/02/14 03:11:31;;;;;;;2.30;1.07;;;-0.50;96.40;;;;;;5056060;28;20417;-77
2022/02/14 03:13:58;;;;;;;1.27;1.17;;;-0.70;96.70;;;;;;5055888;28;20901;-77
2022/02/14 03:16:24;;;;;;;1.30;1.10;;;-0.70;96.70;;;;;;5054463;28;20467;-77
2022/02/14 03:18:51;;;;;;;1.27;1.10;;;-0.70;96.50;;;;;;5054479;28;20431;-77
2022/02/14 03:21:19;;;;;;;1.50;1.20;;;;;;;;;;5055761;28;20269;-77
2022/02/14 03:23:46;;;;;;;2.40;1.10;;;-0.80;96.30;;;;;;5054459;28;20416;-77
2022/02/14 03:26:12;;;;;;;1.40;0.93;;;;;;;;;;5055543;28;20416;-77
2022/02/14 03:28:37;;;;;;;3.17;1.10;;;-0.70;95.60;;;;;;5054334;28;20968;-77
2022/02/14 03:31:03;;;;;;;2.13;0.90;;;-0.70;95.40;;;;;;5055307;28;20550;-77
2022/02/14 03:33:29;;;;;;;1.00;0.90;;;;;;;;;;5055692;28;20158;-77
2022/02/14 03:35:55;;;;;;;1.03;0.70;;;-0.60;95.40;;;;;;5053960;28;20370;-77
2022/02/14 03:38:21;;;;;;;2.07;1.57;;;;;;;;;;5055297;28;20467;-77
2022/02/14 03:40:47;;;;;;;3.70;1.03;;;-0.70;95.40;;;;;;5054212;28;20181;-77
2022/02/14 03:43:13;;;;;;;1.40;0.97;;;-0.70;95.40;;;;;;5055394;28;20412;-77
2022/02/14 03:45:41;;;;;;;1.73;1.07;;;-0.80;95.10;;;;;;5054989;28;20956;-77
2022/02/14 03:48:07;;;;;;;2.13;1.23;;;-0.70;94.80;;;;;;5055113;28;20514;-77
2022/02/14 03:50:33;;;;;;;1.10;0.90;;;;;;;;;;5053967;28;20499;-77
2022/02/14 03:53:00;;;;;;;2.40;1.40;;;-0.60;94.60;;;;;;5053776;28;20420;-77
2022/02/14 03:55:26;;;;;;;1.40;0.90;;;-0.60;94.80;;;;;;5055052;28;20535;-77
2022/02/14 03:57:52;;;;;;;1.10;1.03;;;-0.70;94.70;;;;;;5053961;28;20547;-77
2022/02/14 04:00:20;;;;;;;1.17;0.80;;;-0.70;95.20;;;;;;5054970;28;20209;-77
2022/02/14 04:02:46;;;;;;;1.43;1.20;;;-0.70;95.10;;;;;;5054861;28;20173;-77
2022/02/14 04:05:13;;;;;;;2.20;1.20;;;-0.70;95.20;;;;;;5054818;28;20762;-77
2022/02/14 04:07:39;;;;;;;1.47;1.10;;;-0.70;95.00;;;;;;5053982;28;20495;-76
2022/02/14 04:10:08;;;;;;;1.30;1.00;;;-0.60;94.50;;;;;;5054963;28;20490;-77
2022/02/14 04:12:34;;;;;;;1.00;0.90;;;;;;;;;;5054948;28;20427;-76
2022/02/14 04:15:00;;;;;;;1.70;1.13;;;;;;;;;;5054694;28;20412;-77
2022/02/14 04:17:25;;;;;;;2.03;0.90;;;-0.50;93.90;;;;;;5054614;28;20726;-77
2022/02/14 04:19:52;;;;;;;0.77;0.77;;;-0.40;93.40;;;;;;5053393;28;20535;-76
2022/02/14 04:22:18;;;;;;;1.13;0.93;;;;;;;;;;5053515;28;20213;-77
2022/02/14 04:24:44;;;;;;;1.40;1.17;;;-0.40;93.20;;;;;;5054526;28;20404;-77
2022/02/14 04:27:09;;;;;;;1.37;0.90;;;-0.30;99.90;;;;;;5053221;28;20497;-77
2022/02/14 04:29:35;;;;;;;2.17;1.20;;;;;;;;;;5054361;28;20372;-77
2022/02/14 04:32:01;;;;;;;1.10;1.00;;;0.00;99.90;;;;;;5054304;28;20272;-77
2022/02/14 04:34:27;;;;;;;1.60;1.00;;;0.10;92.50;;;;;;5052978;28;20246;-77
2022/02/14 04:36:52;;;;;;;1.47;0.97;;;1.00;92.70;;;;;;5054704;28;20672;-77
2022/02/14 04:39:19;;;;;;;1.40;1.10;;;-0.20;93.70;;;;;;5054170;28;20193;-77
2022/02/14 04:41:45;;;;;;;1.83;1.00;;;0.00;92.20;;;;;;5054242;28;20180;-77
2022/02/14 04:44:11;;;;;;;1.43;1.17;;;-0.10;92.10;;;;;;5054370;28;20412;-77
2022/02/14 04:46:37;;;;;;;1.00;0.93;;;-0.10;94.70;;;;;;5053883;28;20422;-77
2022/02/14 04:49:05;;;;;;;1.90;1.20;;;-0.10;92.30;;;;;;5052926;28;20201;-77
2022/02/14 04:51:31;;;;;;;0.60;0.60;;;;;;;;;;5058142;28;20173;-77
2022/02/14 04:53:57;;;;;;;4.03;1.10;;;;;;;;;;5055187;28;20443;-77
2022/02/14 04:56:23;;;;;;;0.83;0.83;;;;;;;;;;5052787;28;20463;-77
2022/02/14 04:58:50;;;;;;;1.67;1.20;;;0.00;99.90;;;;;;5052605;28;20930;-77
2022/02/14 05:01:16;;;;;;;1.83;0.97;;;;;;;;;;5052584;28;20544;-77
2022/02/14 05:03:42;;;;;;;3.60;1.30;;;0.10;91.10;;;;;;5054116;28;20408;-77
2022/02/14 05:06:08;;;;;;;1.13;1.00;;;0.10;91.30;;;;;;5053642;28;20971;-77
2022/02/14 05:08:34;;;;;;;1.67;1.17;;;0.30;91.00;;;;;;5053736;28;20255;-77
2022/02/14 05:11:00;;;;;;;1.37;0.97;;;;;;;;;;5052705;28;20410;-77
2022/02/14 05:13:26;;;;;;;2.17;1.13;;;;;;;;;;5052597;28;20230;-77
2022/02/14 05:15:52;;;;;;;1.47;0.90;;;;;;;;;;5053525;28;20419;-77
2022/02/14 05:18:18;;;;;;;1.13;0.87;;;;;;;;;;5053565;28;20759;-77
2022/02/14 05:20:44;;;;;;;6.40;1.20;;;;;;;;;;5053644;28;20475;-77
2022/02/14 05:23:10;;;;;;;1.17;1.07;;;;;;;;;;5053657;28;20474;-77
2022/02/14 05:25:36;;;;;;;1.67;0.93;;;0.20;99.30;;;;;;5053639;28;20896;-77
2022/02/14 05:28:20;;;;;;;1.97;0.80;;;0.20;98.90;;;;;;5052091;28;20173;-77
2022/02/14 05:30:47;;;;;;;1.23;1.00;;;;;;;;;;5052109;28;20462;-77
2022/02/14 05:33:13;;;;;;;1.00;0.90;;;0.40;87.70;;;;;;5053559;28;20380;-77
2022/02/14 05:35:39;;;;;;;2.70;1.10;;;0.50;88.20;;;;;;5051954;28;20790;-77
2022/02/14 05:38:05;;;;;;;1.00;0.80;;;;;;;;;;5053822;28;20761;-77
2022/02/14 05:40:31;;;;;;;0.80;0.80;;;;;;;;;;5052807;28;20452;-77
2022/02/14 05:42:57;;;;;;;0.60;0.60;;;0.40;97.50;;;;;;5052530;28;20416;-76
2022/02/14 05:45:23;;;;;;;0.77;0.73;;;;;;;;;;5053244;28;20205;-77
2022/02/14 05:47:49;;;;;;;0.90;0.80;;;0.50;97.90;;;;;;5052081;28;20193;-77
2022/02/14 05:50:14;;;;;;;0.90;0.90;;;0.60;95.70;;;;;;5053389;28;20201;-76
2022/02/14 05:52:40;;;;;;;0.70;0.63;;;;;;;;;;5053154;28;20658;-77
2022/02/14 05:55:07;;;;;;;2.70;1.10;;;0.70;95.10;;;;;;5053293;28;20181;-77
2022/02/14 05:57:33;;;;;;;1.70;1.13;;;;;;;;;;5053591;28;20198;-77
2022/02/14 05:59:59;;;;;;;1.60;1.20;;;;;;;;;;5053109;28;20424;-77
2022/02/14 06:02:25;;;;;;;1.77;1.17;;;0.90;94.10;;;;;;5053078;28;20489;-77
2022/02/14 06:04:51;;;;;;;1.00;0.83;;;;;;;;;;5051778;28;20615;-77
2022/02/14 06:07:18;;;;;;;2.13;1.20;;;;;;;;;;5053069;28;20177;-77
2022/02/14 06:09:44;;;;;;;1.57;1.20;;;;;;;;;;5051757;28;20995;-77
2022/02/14 06:12:10;;;;;;;1.30;0.80;;;1.30;92.30;;;;;;5053104;28;20416;-77
2022/02/14 06:14:36;;;;;;;2.53;1.37;;;;;;;;;;5052919;28;20218;-77
2022/02/14 06:17:02;;;;;;;2.17;1.40;;;1.20;91.90;;;;;;5053549;28;20302;-77
2022/02/14 06:19:27;;;;;;;1.63;1.10;;;1.30;90.20;;;;;;5051671;28;20655;-77
2022/02/14 06:21:53;;;;;;;4.80;1.60;;;;;;;;;;5052967;28;20170;-77
2022/02/14 06:24:19;;;;;;;1.60;1.07;;;1.40;90.10;;;;;;5052790;28;20181;-77
2022/02/14 06:26:45;;;;;;;2.90;1.27;;;;;;;;;;5051778;28;20185;-77
2022/02/14 06:29:11;;;;;;;1.90;1.10;;;;;;;;;;5053072;28;20226;-77
2022/02/14 06:31:37;;;;;;;2.83;1.30;;;1.30;90.60;;;;;;5055777;28;20427;-77
2022/02/14 06:34:03;;;;;;;2.63;1.20;;;;;;;;;;5056533;28;20687;-76
2022/02/14 06:36:31;;;;;;;1.67;1.33;;;;;;;;;;5055327;28;20232;-77
2022/02/14 06:38:58;;;;;;;1.87;1.23;;;1.40;79.10;;;;;;5056564;28;20935;-77
2022/02/14 06:41:25;;;;;;;1.57;1.30;;;1.40;79.10;;;;;;5056437;28;20423;-77
2022/02/14 06:43:53;;;;;;;1.97;1.30;;;1.40;79.10;;;;;;5056701;28;20407;-77
2022/02/14 06:46:19;;;;;;;2.60;1.50;;;;;;;;;;5056525;28;20897;-77
2022/02/14 06:48:45;;;;;;;3.50;1.63;;;;;;;;;;5055324;28;20485;-77
2022/02/14 06:51:11;;;;;;;4.17;1.30;;;;;;;;;;5057838;28;20408;-77
2022/02/14 06:53:37;;;;;;;2.47;1.50;;;1.50;89.60;;;;;;5055006;28;20188;-77
2022/02/14 06:56:07;;;;;;;2.70;1.20;;;1.60;90.10;;;;;;5056138;28;20459;-77
2022/02/14 06:58:34;;;;;;;1.57;1.33;;;1.80;90.60;;;;;;5055424;28;20252;-77
2022/02/14 07:01:00;;;;;;;2.30;1.07;;;1.40;90.50;;;;;;5058751;28;20495;-77
2022/02/14 07:03:25;;;;;;;1.40;1.17;;;1.80;90.20;;;;;;5056886;28;20253;-77
2022/02/14 07:05:51;;;;;;;1.67;1.30;;;1.60;80.00;;;;;;5056052;28;20524;-77
2022/02/14 07:08:17;;;;;;;2.70;1.47;;;1.70;79.40;;;;;;5056726;28;20196;-77
2022/02/14 07:10:43;;;;;;;1.80;1.20;;;;;;;;;;5056750;28;20198;-77
2022/02/14 07:13:09;;;;;;;4.60;1.43;;;1.70;91.10;;;;;;5056831;28;20488;-77
2022/02/14 07:15:35;;;;;;;2.20;1.20;;;1.70;81.20;;;;;;5056378;28;20174;-77
2022/02/14 07:18:02;;;;;;;2.80;1.63;;;2.00;81.10;;;;;;5056070;28;20215;-78
2022/02/14 07:20:28;;;;;;;2.83;1.40;;;;;;;;;;5056404;28;20170;-78
2022/02/14 07:22:54;;;;;;;3.10;1.43;;;2.10;82.20;;;;;;5056787;28;20412;-78
2022/02/14 07:25:20;;;;;;;2.60;1.70;;;;;;;;;;5056503;28;20184;-77
2022/02/14 07:27:46;;;;;;;2.00;1.63;;;;;;;;;;5057291;28;20185;-77
2022/02/14 07:30:12;;;;;;;5.07;1.77;;;2.20;80.70;;;;;;5057173;28;20428;-77
2022/02/14 07:32:39;;;;;;;3.50;1.63;;;2.20;79.40;;;;;;5055329;28;21029;-77
2022/02/14 07:35:05;;;;;;;3.63;1.67;;;2.30;78.70;;;;;;5055203;28;20489;-77
2022/02/14 07:37:31;;;;;;;3.60;1.87;;;2.30;76.40;;;;;;5056400;28;20451;-78
2022/02/14 07:39:57;;;;;;;11.43;2.37;;;2.50;77.20;;;;;;5056076;28;20224;-78
2022/02/14 07:42:23;;;;;;;2.10;1.67;;;2.30;76.10;;;;;;5054679;28;20420;-77
2022/02/14 07:44:48;;;;;;;3.97;1.97;;;2.30;75.60;;;;;;5055321;28;20177;-77
2022/02/14 07:47:14;;;;;;;7.97;2.23;;;2.40;75.00;;;;;;5054197;28;20189;-77
2022/02/14 07:49:40;;;;;;;1.50;1.27;;;2.70;74.60;;;;;;5055526;28;20208;-78
2022/02/14 07:52:06;;;;;;;7.83;2.37;;;2.80;74.40;;;;;;5055279;28;20181;-77
2022/02/14 07:54:32;;;;;;;3.23;1.60;;;2.80;74.50;;;;;;5055098;28;20466;-78
2022/02/14 07:56:58;;;;;;;3.27;1.57;;;2.90;73.90;;;;;;5055550;28;20198;-78
2022/02/14 07:59:23;;;;;;;2.30;1.67;;;2.90;73.90;;;;;;5055272;28;20197;-77
2022/02/14 08:01:49;;;;;;;4.43;2.10;;;2.90;74.10;;;;;;5055046;28;20177;-78
2022/02/14 08:04:14;;;;;;;2.57;1.77;;;3.10;74.10;;;;;;5053476;28;20590;-77
2022/02/14 08:06:40;;;;;;;3.77;2.50;;;3.30;73.60;;;;;;5055295;28;20181;-78
2022/02/14 08:09:07;;;;;;;2.30;1.87;;;3.40;72.30;;;;;;5055087;28;20208;-77
2022/02/14 08:11:34;;;;;;;4.50;2.30;;;3.30;72.50;;;;;;5053860;28;20186;-78
2022/02/14 08:14:00;;;;;;;5.17;2.20;;;3.80;70.50;;;;;;5054188;28;20666;-78
2022/02/14 08:16:26;;;;;;;2.60;1.80;;;3.80;71.10;;;;;;5054037;28;20716;-78
2022/02/14 08:18:52;;;;;;;4.67;1.90;;;3.60;70.90;;;;;;5053693;28;20209;-78
2022/02/14 08:21:18;;;;;;;4.57;2.13;;;3.60;71.00;;;;;;5053816;28;20173;-78
2022/02/14 08:23:44;;;;;;;5.13;2.20;;;4.10;70.60;;;;;;5053818;28;20182;-78
2022/02/14 08:26:10;;;;;;;2.67;1.97;;;4.60;68.10;;;;;;5054766;28;20177;-78
2022/02/14 08:28:38;;;;;;;3.57;2.23;;;4.60;66.90;;;;;;5054989;28;20728;-78
2022/02/14 08:31:04;;;;;;;3.23;1.97;;;4.70;67.10;;;;;;5053532;28;20264;-78
2022/02/14 08:33:30;;;;;;;3.27;1.60;;;5.50;65.40;;;;;;5053859;28;20188;-78
2022/02/14 08:35:56;;;;;;;5.27;2.17;;;5.70;63.50;;;;;;5053566;28;20194;-78
2022/02/14 08:38:22;;;;;;;4.73;2.47;;;5.30;63.70;;;;;;5055741;28;20191;-78
2022/02/14 08:40:49;;;;;;;3.80;2.00;;;5.00;64.50;;;;;;5055305;28;20203;-78
2022/02/14 08:43:15;;;;;;;4.43;2.53;;;5.10;65.40;;;;;;5055447;28;20659;-78
2022/02/14 08:45:40;;;;;;;6.77;2.80;;;5.60;63.20;;;;;;5054188;28;20198;-78
2022/02/14 08:48:06;;;;;;;4.57;2.30;;;5.70;62.60;;;;;;5056977;28;20186;-78
2022/02/14 08:50:32;;;;;;;3.03;2.30;;;5.40;62.30;;;;;;5054880;28;20182;-79
2022/02/14 08:53:00;;;;;;;3.33;2.00;;;5.10;63.30;;;;;;5053294;28;20267;-78
2022/02/14 08:55:28;;;;;;;3.33;2.43;;;5.00;63.50;;;;;;5054165;28;20547;-78
2022/02/14 08:57:54;;;;;;;3.07;2.10;;;5.00;64.50;;;;;;5054424;28;20195;-78
2022/02/14 09:00:20;;;;;;;8.03;2.40;;;5.10;65.20;;;;;;5054516;28;20189;-78
2022/02/14 09:02:46;;;;;;;5.03;2.20;;;5.30;64.90;;;;;;5053595;28;20182;-78
2022/02/14 09:05:12;;;;;;;5.10;2.60;;;5.90;64.20;;;;;;5054781;28;20171;-78
2022/02/14 09:07:38;;;;;;;4.43;2.70;;;6.40;62.20;;;;;;5057702;28;20245;-78
2022/02/14 09:10:05;;;;;;;4.10;2.60;;;6.60;61.50;;;;;;5054100;28;20692;-78
2022/02/14 09:12:31;;;;;;;5.47;2.80;;;7.00;59.80;;;;;;5055308;28;20714;-78
2022/02/14 09:14:58;;;;;;;4.67;2.40;;;7.10;59.80;;;;;;5054565;28;20197;-78
2022/02/14 09:17:25;;;;;;;11.30;2.50;;;7.10;59.20;;;;;;5056356;28;20572;-78
2022/02/14 09:19:51;;;;;;;6.37;2.90;;;7.40;59.40;;;;;;5053974;28;20197;-78
2022/02/14 09:22:17;;;;;;;5.87;2.03;;;8.10;58.30;;;;;;5054476;28;20184;-78
2022/02/14 09:24:43;;;;;;;4.43;2.10;;;8.80;56.00;;;;;;5054703;28;20193;-78
2022/02/14 09:27:09;;;;;;;8.03;2.30;;;9.30;54.30;;;;;;5056420;28;20173;-79
2022/02/14 09:29:35;;;;;;;7.53;2.33;;;9.30;53.10;;;;;;5054083;28;20197;-79
2022/02/14 09:32:00;;;;;;;11.33;3.00;;;9.40;52.70;;;;;;5057446;28;20234;-78
2022/02/14 09:34:26;;;;;;;7.97;2.40;;;9.80;53.40;;;;;;5055183;28;20251;-78
2022/02/14 09:36:56;;;;;;;6.90;2.67;;;9.90;51.10;;;;;;5054116;28;20201;-78
2022/02/14 09:39:22;;;;;;;7.40;2.00;;;9.90;51.40;;;;;;5053888;28;20200;-79
2022/02/14 09:41:48;;;;;;;3.50;1.80;;;10.30;50.20;;;;;;5053636;28;20169;-79
2022/02/14 09:44:14;;;;;;;6.37;2.37;;;10.60;49.10;;;;;;5055055;28;20170;-79
2022/02/14 09:46:40;;;;;;;5.47;1.90;;;10.50;48.90;;;;;;5055762;28;20231;-79
2022/02/14 09:49:07;;;;;;;5.77;2.00;;;10.60;48.50;;;;;;5056633;28;20193;-79
2022/02/14 09:51:35;;;;;;;3.27;1.60;;;10.60;49.10;;;;;;5054907;28;20178;-78
2022/02/14 09:54:06;;;;;;;5.40;1.70;;;10.70;48.20;;;;;;5055210;28;20696;-79
2022/02/14 09:56:35;;;;;;;3.13;1.80;;;10.70;48.90;;;;;;5054328;28;20542;-78
2022/02/14 09:59:04;;;;;;;4.40;1.40;;;10.20;49.30;;;;;;5054396;28;20200;-79
2022/02/14 10:01:31;;;;;;;6.03;2.00;;;9.80;50.70;;;;;;5056288;28;20631;-78
2022/02/14 10:03:58;;;;;;;3.53;1.83;;;9.90;50.80;;;;;;5055587;28;20253;-79
2022/02/14 10:06:30;;;;;;;6.83;1.63;;;9.80;51.50;;;;;;5059808;28;20184;-78
2022/02/14 10:09:09;;;;;;;2.87;1.30;;;9.50;51.40;;;;;;5058533;28;20193;-78
2022/02/14 10:11:39;;;;;;;2.57;1.40;;;9.90;52.10;;;;;;5059139;28;20177;-78
2022/02/14 10:14:19;;;;;;;2.13;1.43;;;10.40;49.80;;;;;;5062496;28;20174;-79
2022/02/14 10:17:05;;;;;;;5.30;1.97;;;11.00;49.60;;;;;;5061172;28;20607;-79
2022/02/14 10:19:34;;;;;;;3.37;1.60;;;11.60;49.40;;;;;;5060035;28;20194;-79
2022/02/14 10:22:05;;;;;;;2.97;1.47;;;12.00;49.60;;;;;;5076505;28;20171;-79
2022/02/14 10:24:38;;;;;;;3.30;1.53;;;12.10;48.70;;;;;;5072607;28;20171;-79
2022/02/14 10:27:03;;;;;;;3.27;1.23;;;12.20;48.30;;;;;;5061412;28;20203;-79
2022/02/14 10:29:31;;;;;;;4.87;1.50;;;12.40;47.00;;;;;;5059808;28;20203;-79
2022/02/14 10:32:02;;;;;;;4.77;1.70;;;12.90;47.80;;;;;;5061360;28;20638;-79
2022/02/14 10:34:38;;;;;;;5.33;1.60;;;13.40;47.90;;;;;;5062145;28;20638;-78
2022/02/14 10:37:05;;;;;;;5.50;2.00;;;13.40;45.90;;;;;;5063668;28;20258;-78
2022/02/14 10:39:32;;;;;;;5.30;3.10;;;13.20;45.70;;;;;;5059492;28;20282;-79
2022/02/14 10:42:02;;;;;;;2.20;1.60;;;13.70;45.60;;;;;;5059335;28;20185;-78
2022/02/14 10:47:21;;;;;;;2.33;1.53;;;13.70;43.70;;;;;;5060725;28;20175;-78
2022/02/14 10:50:07;;;;;;;2.23;1.40;;;13.40;44.00;;;;;;5060812;28;20247;-77
2022/02/14 10:52:38;;;;;;;2.20;1.80;;;13.70;45.00;;;;;;5060691;28;20181;-78
2022/02/14 10:55:07;;;;;;;3.77;2.00;;;14.20;45.00;;;;;;5059432;28;20158;-78
2022/02/14 10:57:36;;;;;;;5.40;1.53;;;14.30;42.90;;;;;;5059740;28;20201;-78
2022/02/14 11:00:14;;;;;;;2.77;1.80;;;14.50;44.50;;;;;;5058167;28;20193;-78
2022/02/14 11:02:43;;;;;;;4.50;1.57;;;15.10;43.50;;;;;;5057655;28;20235;-78
2022/02/14 11:05:13;;;;;;;2.97;2.00;;;15.80;44.10;;;;;;5058039;28;20166;-78
2022/02/14 11:07:40;;;;;;;2.53;1.63;;;16.10;44.30;;;;;;5057749;28;20283;-78
2022/02/14 11:10:09;;;;;;;5.37;2.20;;;16.60;43.60;;;;;;5059216;28;20256;-77
2022/02/14 11:12:39;;;;;;;4.60;2.37;;;17.10;44.00;;;;;;5061601;28;20652;-78
2022/02/14 11:15:07;;;;;;;5.27;1.87;;;17.50;43.60;;;;;;5057849;28;20203;-78
2022/02/14 11:17:34;;;;;;;2.10;1.30;;;17.80;41.70;;;;;;5056823;28;20173;-78
2022/02/14 11:20:04;;;;;;;3.50;1.87;;;17.70;41.20;;;;;;5058995;28;20200;-78
2022/02/14 11:22:33;;;;;;;4.10;1.80;;;17.00;43.90;;;;;;5058120;28;20175;-78
2022/02/14 11:25:44;;;;;;;6.87;1.93;;;16.70;44.10;;;;;;5057878;28;20207;-78
2022/02/14 11:28:36;;;;;;;2.90;1.60;;;16.50;41.80;;;;;;5041975;28;20600;-78
2022/02/14 11:31:19;;;;;;;2.53;1.50;;;16.50;41.20;;;;;;5057021;28;20192;-78
2022/02/14 11:33:59;;;;;;;2.73;1.50;;;16.40;41.30;;;;;;5057962;28;20166;-78
2022/02/14 11:36:33;;;;;;;5.07;1.90;;;16.00;44.00;;;;;;5056445;28;20166;-78
2022/02/14 11:39:03;;;;;;;1.50;1.40;;;15.80;44.60;;;;;;5055976;28;20199;-78
2022/02/14 11:41:35;;;;;;;2.10;1.50;;;15.70;43.30;;;;;;5057141;28;20653;-78
2022/02/14 11:44:13;;;;;;;6.93;1.50;;;15.30;44.60;;;;;;5056532;28;20592;-78
2022/02/14 11:46:46;;;;;;;4.27;1.90;;;15.20;46.00;;;;;;5056299;28;20298;-78
2022/02/14 11:49:13;;;;;;;2.67;1.60;;;15.40;46.90;;;;;;5057211;28;20560;-79
2022/02/14 11:51:49;;;;;;;4.83;2.00;;;15.80;49.30;;;;;;5061000;28;20166;-78
2022/02/14 11:54:36;;;;;;;6.20;1.73;;;16.80;47.60;;;;;;5058430;28;20638;-78
2022/02/14 11:57:13;;;;;;;2.57;1.80;;;17.00;45.00;;;;;;5058623;28;20219;-79
2022/02/14 11:59:39;;;;;;;4.27;1.87;;;15.90;48.10;;;;;;5058445;28;20196;-78
2022/02/14 12:02:05;;;;;;;2.23;1.67;;;15.90;50.20;;;;;;5054368;28;20199;-78
2022/02/14 12:04:31;;;;;;;6.97;2.13;;;16.30;49.00;;;;;;5054881;28;20186;-78
2022/02/14 12:07:19;;;;;;;4.77;2.33;;;16.00;49.00;;;;;;5056276;28;20535;-78
2022/02/14 12:09:57;;;;;;;4.70;2.37;;;15.30;50.70;;;;;;5055259;28;20247;-78
2022/02/14 12:13:03;;;;;;;5.83;2.03;;;15.40;51.70;;;;;;5056340;28;20174;-78
2022/02/14 12:20:52;;;;;;;4.20;1.80;;;16.70;51.80;;;;;;5062332;28;20227;-78
2022/02/14 12:23:45;;;;;;;4.63;2.90;;;17.00;47.60;;;;;;5059828;28;20171;-77
2022/02/14 12:26:23;;;;;;;7.43;2.73;;;17.30;48.30;;;;;;5058720;28;20529;-78
2022/02/14 12:31:40;;;;;;;2.87;1.80;;;17.10;46.70;;;;;;5059472;28;20213;-77
2022/02/14 12:34:06;;;;;;;5.27;2.20;;;16.90;47.90;;;;;;5061539;28;20253;-78
2022/02/14 12:36:31;;;;;;;4.67;2.13;;;17.80;48.50;;;;;;5063169;28;20288;-77
2022/02/14 12:38:57;;;;;;;6.13;3.40;;;17.80;46.20;;;;;;5058444;28;20200;-77
2022/02/14 12:41:23;;;;;;;5.50;2.57;;;18.00;46.00;;;;;;5056253;28;20624;-77
2022/02/14 12:43:52;;;;;;;1.90;1.50;;;17.40;46.90;;;;;;5056815;28;20539;-77
2022/02/14 12:46:20;;;;;;;3.90;2.27;;;16.40;45.00;;;;;;5053036;28;20211;-77
2022/02/14 12:48:49;;;;;;;4.80;2.80;;;15.80;46.20;;;;;;5053913;28;20696;-77
2022/02/14 12:51:25;;;;;;;2.90;2.00;;;15.20;47.80;;;;;;5053933;28;20539;-77
2022/02/14 12:54:09;;;;;;;3.70;1.90;;;14.60;48.20;;;;;;5053904;28;20203;-77
2022/02/14 12:56:36;;;;;;;2.10;1.70;;;14.30;48.40;;;;;;5052677;28;20173;-77
2022/02/14 12:59:11;;;;;;;2.87;2.03;;;14.00;48.80;;;;;;5053752;28;20189;-77
2022/02/14 13:01:43;;;;;;;3.83;2.27;;;13.70;49.50;;;;;;5053890;28;20648;-77
2022/02/14 13:04:11;;;;;;;4.07;1.60;;;13.70;48.40;;;;;;5053869;28;20586;-76
2022/02/14 13:06:50;;;;;;;6.03;1.60;;;15.70;47.10;;;;;;5053525;28;20241;-77
2022/02/14 13:09:33;;;;;;;2.43;1.70;;;17.30;44.70;;;;;;5054063;28;20197;-77
2022/02/14 13:12:11;;;;;;;3.23;2.10;;;18.50;43.70;;;;;;5054585;28;20170;-77
2022/02/14 13:14:47;;;;;;;3.53;1.80;;;19.00;42.40;;;;;;5053529;28;20181;-77
2022/02/14 13:17:14;;;;;;;5.83;2.23;;;19.60;42.30;;;;;;5058062;28;20157;-78
2022/02/14 13:19:55;;;;;;;2.27;1.50;;;18.30;41.50;;;;;;5057614;28;20201;-77
2022/02/14 13:22:23;;;;;;;2.80;2.10;;;18.50;41.30;;;;;;5055725;28;20174;-78
2022/02/14 13:24:53;;;;;;;2.70;2.07;;;17.60;41.70;;;;;;5061431;28;20273;-78
2022/02/14 13:27:34;;;;;;;2.23;1.63;;;16.40;42.80;;;;;;5058235;28;20197;-78
2022/02/14 13:30:09;;;;;;;3.43;1.73;;;15.30;45.30;;;;;;5057092;28;20723;-77
2022/02/14 13:32:37;;;;;;;4.67;1.97;;;14.80;45.10;;;;;;5056288;28;20262;-78
2022/02/14 13:35:19;;;;;;;4.57;1.73;;;14.50;46.10;;;;;;5054985;28;20170;-77